sensor_id;sensor_type;location;lat;lon;timestamp;P1;durP1;ratioP1;P2;durP2;ratioP2
37323;SDS011;23205;49.986;18.950;2022-11-15T00:01:58;92.57;;;25.53;;
37323;SDS011;23205;49.986;18.950;2022-11-15T00:07:18;77.50;;;23.90;;
37323;SDS011;23205;49.986;18.950;2022-11-15T00:12:38;126.85;;;28.67;;
37323;SDS011;23205;49.986;18.950;2022-11-15T00:17:57;71.63;;;21.30;;
37323;SDS011;23205;49.986;18.950;2022-11-15T00:23:17;77.67;;;24.40;;
37323;SDS011;23205;49.986;18.950;2022-11-15T00:28:37;152.80;;;25.47;;
37323;SDS011;23205;49.986;18.950;2022-11-15T00:33:56;85.27;;;22.13;;
37323;SDS011;23205;49.986;18.950;2022-11-15T00:39:16;69.53;;;20.03;;
37323;SDS011;23205;49.986;18.950;2022-11-15T00:44:35;79.50;;;21.97;;
37323;SDS011;23205;49.986;18.950;2022-11-15T00:49:55;102.23;;;24.90;;
37323;SDS011;23205;49.986;18.950;2022-11-15T00:55:15;108.78;;;23.25;;
37323;SDS011;23205;49.986;18.950;2022-11-15T01:00:35;82.68;;;23.52;;
37323;SDS011;23205;49.986;18.950;2022-11-15T01:05:58;60.93;;;22.10;;
37323;SDS011;23205;49.986;18.950;2022-11-15T01:11:18;95.93;;;21.85;;
37323;SDS011;23205;49.986;18.950;2022-11-15T01:16:37;77.63;;;22.77;;
37323;SDS011;23205;49.986;18.950;2022-11-15T01:21:57;96.07;;;21.37;;
37323;SDS011;23205;49.986;18.950;2022-11-15T01:27:16;91.73;;;21.30;;
37323;SDS011;23205;49.986;18.950;2022-11-15T01:32:36;75.63;;;21.80;;
37323;SDS011;23205;49.986;18.950;2022-11-15T01:37:56;100.03;;;22.88;;
37323;SDS011;23205;49.986;18.950;2022-11-15T01:43:34;89.93;;;23.43;;
37323;SDS011;23205;49.986;18.950;2022-11-15T01:48:55;81.55;;;22.38;;
37323;SDS011;23205;49.986;18.950;2022-11-15T01:54:17;109.50;;;23.20;;
37323;SDS011;23205;49.986;18.950;2022-11-15T01:59:40;73.50;;;22.42;;
37323;SDS011;23205;49.986;18.950;2022-11-15T02:05:00;83.10;;;23.23;;
37323;SDS011;23205;49.986;18.950;2022-11-15T02:10:21;73.90;;;26.05;;
37323;SDS011;23205;49.986;18.950;2022-11-15T02:15:52;93.70;;;25.10;;
37323;SDS011;23205;49.986;18.950;2022-11-15T02:32:45;86.80;;;22.95;;
37323;SDS011;23205;49.986;18.950;2022-11-15T02:44:29;142.07;;;26.73;;
37323;SDS011;23205;49.986;18.950;2022-11-15T02:49:16;86.68;;;21.67;;
37323;SDS011;23205;49.986;18.950;2022-11-15T02:54:36;95.63;;;26.55;;
37323;SDS011;23205;49.986;18.950;2022-11-15T03:11:03;57.38;;;22.00;;
37323;SDS011;23205;49.986;18.950;2022-11-15T03:22:22;75.13;;;23.55;;
37323;SDS011;23205;49.986;18.950;2022-11-15T03:27:44;147.13;;;28.08;;
37323;SDS011;23205;49.986;18.950;2022-11-15T03:33:06;123.95;;;26.00;;
37323;SDS011;23205;49.986;18.950;2022-11-15T03:38:26;191.80;;;30.70;;
37323;SDS011;23205;49.986;18.950;2022-11-15T03:43:52;117.90;;;26.27;;
37323;SDS011;23205;49.986;18.950;2022-11-15T03:49:18;78.40;;;25.25;;
37323;SDS011;23205;49.986;18.950;2022-11-15T04:00:28;122.72;;;30.10;;
37323;SDS011;23205;49.986;18.950;2022-11-15T04:05:48;97.50;;;28.30;;
37323;SDS011;23205;49.986;18.950;2022-11-15T04:11:07;81.23;;;25.33;;
37323;SDS011;23205;49.986;18.950;2022-11-15T04:16:27;88.87;;;23.23;;
37323;SDS011;23205;49.986;18.950;2022-11-15T04:21:46;95.17;;;25.60;;
37323;SDS011;23205;49.986;18.950;2022-11-15T04:27:25;73.53;;;22.92;;
37323;SDS011;23205;49.986;18.950;2022-11-15T04:32:44;102.17;;;24.80;;
37323;SDS011;23205;49.986;18.950;2022-11-15T04:38:05;98.03;;;22.37;;
37323;SDS011;23205;49.986;18.950;2022-11-15T04:43:25;124.85;;;34.42;;
37323;SDS011;23205;49.986;18.950;2022-11-15T04:48:45;176.63;;;44.47;;
37323;SDS011;23205;49.986;18.950;2022-11-15T04:54:04;78.97;;;24.33;;
37323;SDS011;23205;49.986;18.950;2022-11-15T04:59:24;86.60;;;22.77;;
37323;SDS011;23205;49.986;18.950;2022-11-15T05:04:44;91.10;;;21.45;;
37323;SDS011;23205;49.986;18.950;2022-11-15T05:10:17;60.95;;;22.52;;
37323;SDS011;23205;49.986;18.950;2022-11-15T05:15:36;106.03;;;31.70;;
37323;SDS011;23205;49.986;18.950;2022-11-15T05:21:02;127.93;;;42.57;;
37323;SDS011;23205;49.986;18.950;2022-11-15T05:26:22;124.03;;;37.72;;
37323;SDS011;23205;49.986;18.950;2022-11-15T05:31:42;84.18;;;29.20;;
37323;SDS011;23205;49.986;18.950;2022-11-15T05:37:02;138.15;;;34.83;;
37323;SDS011;23205;49.986;18.950;2022-11-15T05:42:22;120.95;;;40.00;;
37323;SDS011;23205;49.986;18.950;2022-11-15T05:47:43;67.20;;;21.13;;
37323;SDS011;23205;49.986;18.950;2022-11-15T05:53:03;94.15;;;31.25;;
37323;SDS011;23205;49.986;18.950;2022-11-15T05:58:24;136.13;;;48.10;;
37323;SDS011;23205;49.986;18.950;2022-11-15T06:03:43;130.90;;;25.27;;
37323;SDS011;23205;49.986;18.950;2022-11-15T06:09:03;74.78;;;23.17;;
37323;SDS011;23205;49.986;18.950;2022-11-15T06:14:22;78.17;;;23.57;;
37323;SDS011;23205;49.986;18.950;2022-11-15T06:19:42;96.17;;;25.70;;
37323;SDS011;23205;49.986;18.950;2022-11-15T06:25:02;172.87;;;28.17;;
37323;SDS011;23205;49.986;18.950;2022-11-15T06:30:22;123.13;;;26.57;;
37323;SDS011;23205;49.986;18.950;2022-11-15T06:35:42;173.60;;;27.45;;
37323;SDS011;23205;49.986;18.950;2022-11-15T06:41:02;76.67;;;26.30;;
37323;SDS011;23205;49.986;18.950;2022-11-15T06:51:42;234.60;;;34.10;;
37323;SDS011;23205;49.986;18.950;2022-11-15T06:57:01;156.68;;;32.22;;
37323;SDS011;23205;49.986;18.950;2022-11-15T07:02:23;129.00;;;29.30;;
37323;SDS011;23205;49.986;18.950;2022-11-15T07:07:43;80.37;;;25.97;;
37323;SDS011;23205;49.986;18.950;2022-11-15T07:13:02;139.33;;;31.83;;
37323;SDS011;23205;49.986;18.950;2022-11-15T07:18:22;185.97;;;34.27;;
37323;SDS011;23205;49.986;18.950;2022-11-15T07:23:41;178.63;;;32.83;;
37323;SDS011;23205;49.986;18.950;2022-11-15T07:29:01;97.10;;;31.90;;
37323;SDS011;23205;49.986;18.950;2022-11-15T07:34:20;86.73;;;34.97;;
37323;SDS011;23205;49.986;18.950;2022-11-15T07:39:40;86.35;;;33.75;;
37323;SDS011;23205;49.986;18.950;2022-11-15T07:45:00;112.77;;;36.10;;
37323;SDS011;23205;49.986;18.950;2022-11-15T07:50:19;123.93;;;40.97;;
37323;SDS011;23205;49.986;18.950;2022-11-15T07:55:39;152.77;;;37.77;;
37323;SDS011;23205;49.986;18.950;2022-11-15T08:01:03;92.75;;;33.63;;
37323;SDS011;23205;49.986;18.950;2022-11-15T08:06:23;77.65;;;34.10;;
37323;SDS011;23205;49.986;18.950;2022-11-15T08:11:43;82.22;;;33.28;;
37323;SDS011;23205;49.986;18.950;2022-11-15T08:17:02;83.20;;;35.20;;
37323;SDS011;23205;49.986;18.950;2022-11-15T08:22:22;80.77;;;33.03;;
37323;SDS011;23205;49.986;18.950;2022-11-15T08:27:41;466.13;;;143.47;;
37323;SDS011;23205;49.986;18.950;2022-11-15T08:33:01;132.20;;;52.50;;
37323;SDS011;23205;49.986;18.950;2022-11-15T08:38:20;93.03;;;38.30;;
37323;SDS011;23205;49.986;18.950;2022-11-15T08:43:40;86.97;;;36.80;;
37323;SDS011;23205;49.986;18.950;2022-11-15T08:49:00;76.07;;;34.70;;
37323;SDS011;23205;49.986;18.950;2022-11-15T08:54:19;80.20;;;38.27;;
37323;SDS011;23205;49.986;18.950;2022-11-15T08:59:39;97.03;;;41.07;;
37323;SDS011;23205;49.986;18.950;2022-11-15T09:04:58;84.37;;;39.37;;
37323;SDS011;23205;49.986;18.950;2022-11-15T09:10:18;77.70;;;36.73;;
37323;SDS011;23205;49.986;18.950;2022-11-15T09:15:37;84.50;;;37.70;;
37323;SDS011;23205;49.986;18.950;2022-11-15T09:20:57;69.27;;;33.87;;
37323;SDS011;23205;49.986;18.950;2022-11-15T09:31:37;67.43;;;31.90;;
37323;SDS011;23205;49.986;18.950;2022-11-15T09:36:57;65.33;;;30.87;;
37323;SDS011;23205;49.986;18.950;2022-11-15T09:54:01;73.05;;;35.30;;
37323;SDS011;23205;49.986;18.950;2022-11-15T10:03:59;63.15;;;34.15;;
37323;SDS011;23205;49.986;18.950;2022-11-15T10:24:35;64.88;;;33.65;;
37323;SDS011;23205;49.986;18.950;2022-11-15T10:29:42;66.88;;;35.58;;
37323;SDS011;23205;49.986;18.950;2022-11-15T10:34:43;67.30;;;36.88;;
37323;SDS011;23205;49.986;18.950;2022-11-15T10:39:45;62.38;;;34.25;;
37323;SDS011;23205;49.986;18.950;2022-11-15T10:45:08;71.88;;;38.03;;
37323;SDS011;23205;49.986;18.950;2022-11-15T10:50:27;65.25;;;37.67;;
37323;SDS011;23205;49.986;18.950;2022-11-15T10:55:29;64.28;;;34.53;;
37323;SDS011;23205;49.986;18.950;2022-11-15T11:00:37;70.25;;;37.55;;
37323;SDS011;23205;49.986;18.950;2022-11-15T11:05:39;64.55;;;36.25;;
37323;SDS011;23205;49.986;18.950;2022-11-15T11:11:00;67.75;;;37.85;;
37323;SDS011;23205;49.986;18.950;2022-11-15T11:21:09;72.38;;;37.78;;
37323;SDS011;23205;49.986;18.950;2022-11-15T11:31:45;120.87;;;57.13;;
37323;SDS011;23205;49.986;18.950;2022-11-15T11:47:23;77.63;;;40.75;;
37323;SDS011;23205;49.986;18.950;2022-11-15T11:52:29;91.00;;;45.17;;
37323;SDS011;23205;49.986;18.950;2022-11-15T11:58:03;73.03;;;40.45;;
37323;SDS011;23205;49.986;18.950;2022-11-15T12:03:01;77.18;;;40.03;;
37323;SDS011;23205;49.986;18.950;2022-11-15T12:13:24;72.17;;;38.90;;
37323;SDS011;23205;49.986;18.950;2022-11-15T12:18:26;73.95;;;38.28;;
37323;SDS011;23205;49.986;18.950;2022-11-15T12:23:28;74.93;;;38.15;;
37323;SDS011;23205;49.986;18.950;2022-11-15T12:33:42;76.03;;;40.22;;
37323;SDS011;23205;49.986;18.950;2022-11-15T12:43:51;85.15;;;45.03;;
37323;SDS011;23205;49.986;18.950;2022-11-15T12:48:53;90.35;;;43.80;;
37323;SDS011;23205;49.986;18.950;2022-11-15T12:53:55;80.88;;;42.70;;
37323;SDS011;23205;49.986;18.950;2022-11-15T12:58:57;78.20;;;40.85;;
37323;SDS011;23205;49.986;18.950;2022-11-15T13:04:08;74.00;;;40.75;;
37323;SDS011;23205;49.986;18.950;2022-11-15T13:19:42;72.57;;;39.97;;
37323;SDS011;23205;49.986;18.950;2022-11-15T13:24:43;73.07;;;39.10;;
37323;SDS011;23205;49.986;18.950;2022-11-15T13:29:45;69.10;;;37.88;;
37323;SDS011;23205;49.986;18.950;2022-11-15T13:34:46;75.63;;;39.92;;
37323;SDS011;23205;49.986;18.950;2022-11-15T13:39:48;71.38;;;37.15;;
37323;SDS011;23205;49.986;18.950;2022-11-15T13:49:57;76.57;;;40.63;;
37323;SDS011;23205;49.986;18.950;2022-11-15T13:55:02;79.25;;;41.08;;
37323;SDS011;23205;49.986;18.950;2022-11-15T14:00:06;72.63;;;41.13;;
37323;SDS011;23205;49.986;18.950;2022-11-15T14:05:25;71.78;;;38.60;;
37323;SDS011;23205;49.986;18.950;2022-11-15T14:10:31;76.20;;;40.88;;
37323;SDS011;23205;49.986;18.950;2022-11-15T14:15:34;75.80;;;42.55;;
37323;SDS011;23205;49.986;18.950;2022-11-15T14:20:36;87.28;;;46.88;;
37323;SDS011;23205;49.986;18.950;2022-11-15T14:25:38;119.60;;;61.85;;
37323;SDS011;23205;49.986;18.950;2022-11-15T14:30:40;104.95;;;51.47;;
37323;SDS011;23205;49.986;18.950;2022-11-15T14:35:41;118.82;;;58.58;;
37323;SDS011;23205;49.986;18.950;2022-11-15T14:40:43;99.03;;;50.20;;
37323;SDS011;23205;49.986;18.950;2022-11-15T14:45:44;97.72;;;51.03;;
37323;SDS011;23205;49.986;18.950;2022-11-15T14:50:45;96.57;;;51.08;;
37323;SDS011;23205;49.986;18.950;2022-11-15T14:55:46;109.25;;;55.15;;
37323;SDS011;23205;49.986;18.950;2022-11-15T15:00:48;100.13;;;50.35;;
37323;SDS011;23205;49.986;18.950;2022-11-15T15:05:49;98.25;;;51.13;;
37323;SDS011;23205;49.986;18.950;2022-11-15T15:10:50;101.45;;;50.47;;
37323;SDS011;23205;49.986;18.950;2022-11-15T15:15:51;113.43;;;57.95;;
37323;SDS011;23205;49.986;18.950;2022-11-15T15:20:56;131.13;;;62.03;;
37323;SDS011;23205;49.986;18.950;2022-11-15T15:26:00;147.13;;;70.07;;
37323;SDS011;23205;49.986;18.950;2022-11-15T15:31:01;129.85;;;61.70;;
37323;SDS011;23205;49.986;18.950;2022-11-15T15:36:02;140.30;;;68.70;;
37323;SDS011;23205;49.986;18.950;2022-11-15T15:41:04;165.95;;;83.57;;
37323;SDS011;23205;49.986;18.950;2022-11-15T15:46:11;143.63;;;75.95;;
37323;SDS011;23205;49.986;18.950;2022-11-15T15:51:13;163.43;;;89.25;;
37323;SDS011;23205;49.986;18.950;2022-11-15T15:56:14;196.07;;;106.20;;
37323;SDS011;23205;49.986;18.950;2022-11-15T16:01:15;151.68;;;73.25;;
37323;SDS011;23205;49.986;18.950;2022-11-15T16:06:50;149.30;;;70.72;;
37323;SDS011;23205;49.986;18.950;2022-11-15T16:11:44;155.45;;;73.60;;
37323;SDS011;23205;49.986;18.950;2022-11-15T16:16:46;142.73;;;72.63;;
37323;SDS011;23205;49.986;18.950;2022-11-15T16:21:52;148.73;;;70.70;;
37323;SDS011;23205;49.986;18.950;2022-11-15T16:27:02;161.07;;;78.75;;
37323;SDS011;23205;49.986;18.950;2022-11-15T16:32:03;161.25;;;83.82;;
37323;SDS011;23205;49.986;18.950;2022-11-15T16:37:04;162.68;;;82.03;;
37323;SDS011;23205;49.986;18.950;2022-11-15T16:42:06;188.57;;;100.97;;
37323;SDS011;23205;49.986;18.950;2022-11-15T16:47:14;176.70;;;95.05;;
37323;SDS011;23205;49.986;18.950;2022-11-15T16:52:16;154.95;;;82.85;;
37323;SDS011;23205;49.986;18.950;2022-11-15T16:57:17;199.93;;;96.45;;
37323;SDS011;23205;49.986;18.950;2022-11-15T17:02:18;209.70;;;103.53;;
37323;SDS011;23205;49.986;18.950;2022-11-15T17:07:19;166.38;;;88.70;;
37323;SDS011;23205;49.986;18.950;2022-11-15T17:12:20;138.20;;;69.38;;
37323;SDS011;23205;49.986;18.950;2022-11-15T17:17:21;130.13;;;67.47;;
37323;SDS011;23205;49.986;18.950;2022-11-15T17:22:23;154.13;;;78.53;;
37323;SDS011;23205;49.986;18.950;2022-11-15T17:27:24;171.90;;;90.15;;
37323;SDS011;23205;49.986;18.950;2022-11-15T17:32:26;164.15;;;88.43;;
37323;SDS011;23205;49.986;18.950;2022-11-15T17:37:27;208.10;;;116.13;;
37323;SDS011;23205;49.986;18.950;2022-11-15T17:42:28;355.83;;;192.10;;
37323;SDS011;23205;49.986;18.950;2022-11-15T17:47:29;355.05;;;189.52;;
37323;SDS011;23205;49.986;18.950;2022-11-15T17:52:30;266.23;;;137.95;;
37323;SDS011;23205;49.986;18.950;2022-11-15T17:57:31;276.42;;;137.75;;
37323;SDS011;23205;49.986;18.950;2022-11-15T18:02:33;280.30;;;143.95;;
37323;SDS011;23205;49.986;18.950;2022-11-15T18:07:34;262.27;;;148.05;;
37323;SDS011;23205;49.986;18.950;2022-11-15T18:12:35;295.15;;;160.93;;
37323;SDS011;23205;49.986;18.950;2022-11-15T18:17:36;296.17;;;154.02;;
37323;SDS011;23205;49.986;18.950;2022-11-15T18:22:37;419.98;;;186.25;;
37323;SDS011;23205;49.986;18.950;2022-11-15T18:27:38;642.40;;;241.25;;
37323;SDS011;23205;49.986;18.950;2022-11-15T18:32:40;337.10;;;133.30;;
37323;SDS011;23205;49.986;18.950;2022-11-15T18:37:41;169.63;;;89.00;;
37323;SDS011;23205;49.986;18.950;2022-11-15T18:42:42;172.82;;;89.85;;
37323;SDS011;23205;49.986;18.950;2022-11-15T18:47:49;189.50;;;95.13;;
37323;SDS011;23205;49.986;18.950;2022-11-15T18:52:52;199.18;;;93.82;;
37323;SDS011;23205;49.986;18.950;2022-11-15T18:57:53;174.77;;;89.15;;
37323;SDS011;23205;49.986;18.950;2022-11-15T19:02:54;167.68;;;83.32;;
37323;SDS011;23205;49.986;18.950;2022-11-15T19:07:57;175.18;;;92.10;;
37323;SDS011;23205;49.986;18.950;2022-11-15T19:12:59;269.98;;;113.97;;
37323;SDS011;23205;49.986;18.950;2022-11-15T19:18:00;208.73;;;102.22;;
37323;SDS011;23205;49.986;18.950;2022-11-15T19:23:01;220.38;;;103.25;;
37323;SDS011;23205;49.986;18.950;2022-11-15T19:28:03;188.30;;;96.07;;
37323;SDS011;23205;49.986;18.950;2022-11-15T19:33:04;166.23;;;80.18;;
37323;SDS011;23205;49.986;18.950;2022-11-15T19:38:05;149.40;;;75.50;;
37323;SDS011;23205;49.986;18.950;2022-11-15T19:43:07;151.38;;;77.53;;
37323;SDS011;23205;49.986;18.950;2022-11-15T19:48:08;143.68;;;72.55;;
37323;SDS011;23205;49.986;18.950;2022-11-15T19:53:09;141.77;;;72.22;;
37323;SDS011;23205;49.986;18.950;2022-11-15T19:58:10;143.43;;;72.90;;
37323;SDS011;23205;49.986;18.950;2022-11-15T20:03:11;151.57;;;79.18;;
37323;SDS011;23205;49.986;18.950;2022-11-15T20:08:13;359.92;;;156.90;;
37323;SDS011;23205;49.986;18.950;2022-11-15T20:13:14;217.07;;;103.57;;
37323;SDS011;23205;49.986;18.950;2022-11-15T20:18:15;189.75;;;95.03;;
37323;SDS011;23205;49.986;18.950;2022-11-15T20:23:17;158.82;;;81.90;;
37323;SDS011;23205;49.986;18.950;2022-11-15T20:28:22;196.82;;;96.00;;
37323;SDS011;23205;49.986;18.950;2022-11-15T20:33:24;159.25;;;78.60;;
37323;SDS011;23205;49.986;18.950;2022-11-15T20:38:25;137.20;;;69.18;;
37323;SDS011;23205;49.986;18.950;2022-11-15T20:43:27;181.95;;;87.55;;
37323;SDS011;23205;49.986;18.950;2022-11-15T20:48:28;271.95;;;119.57;;
37323;SDS011;23205;49.986;18.950;2022-11-15T20:53:30;273.85;;;124.18;;
37323;SDS011;23205;49.986;18.950;2022-11-15T20:58:31;289.20;;;131.98;;
37323;SDS011;23205;49.986;18.950;2022-11-15T21:03:33;291.25;;;134.02;;
37323;SDS011;23205;49.986;18.950;2022-11-15T21:08:34;266.42;;;120.78;;
37323;SDS011;23205;49.986;18.950;2022-11-15T21:13:54;366.35;;;167.90;;
37323;SDS011;23205;49.986;18.950;2022-11-15T21:18:55;366.35;;;171.05;;
37323;SDS011;23205;49.986;18.950;2022-11-15T21:23:56;358.60;;;161.13;;
37323;SDS011;23205;49.986;18.950;2022-11-15T21:28:57;377.73;;;162.23;;
37323;SDS011;23205;49.986;18.950;2022-11-15T21:33:59;397.67;;;169.68;;
37323;SDS011;23205;49.986;18.950;2022-11-15T21:39:01;372.35;;;170.80;;
37323;SDS011;23205;49.986;18.950;2022-11-15T21:44:02;266.02;;;130.70;;
37323;SDS011;23205;49.986;18.950;2022-11-15T21:49:04;254.38;;;125.18;;
37323;SDS011;23205;49.986;18.950;2022-11-15T21:54:05;272.63;;;139.05;;
37323;SDS011;23205;49.986;18.950;2022-11-15T21:59:06;285.70;;;150.40;;
37323;SDS011;23205;49.986;18.950;2022-11-15T22:04:07;298.00;;;158.75;;
37323;SDS011;23205;49.986;18.950;2022-11-15T22:09:10;287.27;;;149.90;;
37323;SDS011;23205;49.986;18.950;2022-11-15T22:14:11;280.58;;;146.00;;
37323;SDS011;23205;49.986;18.950;2022-11-15T22:19:12;281.70;;;148.23;;
37323;SDS011;23205;49.986;18.950;2022-11-15T22:24:13;296.67;;;152.77;;
37323;SDS011;23205;49.986;18.950;2022-11-15T22:29:14;278.25;;;138.90;;
37323;SDS011;23205;49.986;18.950;2022-11-15T22:34:16;273.25;;;140.63;;
37323;SDS011;23205;49.986;18.950;2022-11-15T22:39:17;276.70;;;135.20;;
37323;SDS011;23205;49.986;18.950;2022-11-15T22:44:18;256.17;;;135.95;;
37323;SDS011;23205;49.986;18.950;2022-11-15T22:49:19;256.88;;;136.23;;
37323;SDS011;23205;49.986;18.950;2022-11-15T22:54:20;278.80;;;149.40;;
37323;SDS011;23205;49.986;18.950;2022-11-15T22:59:21;278.92;;;146.30;;
37323;SDS011;23205;49.986;18.950;2022-11-15T23:04:23;270.17;;;143.43;;
37323;SDS011;23205;49.986;18.950;2022-11-15T23:09:24;296.38;;;159.07;;
37323;SDS011;23205;49.986;18.950;2022-11-15T23:14:26;285.65;;;158.13;;
37323;SDS011;23205;49.986;18.950;2022-11-15T23:19:27;297.05;;;161.88;;
37323;SDS011;23205;49.986;18.950;2022-11-15T23:24:29;269.45;;;133.50;;
37323;SDS011;23205;49.986;18.950;2022-11-15T23:29:30;271.38;;;144.82;;
37323;SDS011;23205;49.986;18.950;2022-11-15T23:34:34;270.58;;;146.68;;
37323;SDS011;23205;49.986;18.950;2022-11-15T23:39:35;266.20;;;138.73;;
37323;SDS011;23205;49.986;18.950;2022-11-15T23:44:36;265.27;;;138.65;;
37323;SDS011;23205;49.986;18.950;2022-11-15T23:49:38;280.20;;;151.40;;
37323;SDS011;23205;49.986;18.950;2022-11-15T23:54:39;268.33;;;140.73;;
37323;SDS011;23205;49.986;18.950;2022-11-15T23:59:40;236.95;;;124.25;;
